Time;durP1;ratioP1;P1;durP2;ratioP2;P2;SDS_P1;SDS_P2;PMS_P1;PMS_P2;Temp;Humidity;BMP_temperature;BMP_pressure;BME280_temperature;BME280_humidity;BME280_pressure;Samples;Min_cycle;Max_cycle;Signal;HPM_P1;HPM_P2
2022/01/26 00:00:05;;;;;;;111.18;38.60;;;;;;;2.36;77.49;101090.03;346253;28;1217;-83
2022/01/26 00:00:30;;;;;;;111.13;41.88;;;;;;;2.38;77.95;101083.25;346367;28;1078;-82
2022/01/26 00:05:52;;;;;;;132.15;41.63;;;;;;;2.28;78.62;101086.44;346528;28;1062;-82
2022/01/26 00:06:09;;;;;;;117.07;38.40;;;;;;;2.22;78.92;101088.84;346262;28;1724;-83
2022/01/26 00:06:24;;;;;;;120.65;40.78;;;;;;;2.22;78.42;101090.56;346536;28;1246;-82
2022/01/26 00:06:37;;;;;;;120.50;41.47;;;;;;;2.20;78.53;101090.50;346375;28;1090;-82
2022/01/26 00:06:49;;;;;;;118.97;39.33;;;;;;;2.17;78.77;101090.41;346467;28;1270;-83
2022/01/26 00:07:02;;;;;;;114.63;39.28;;;;;;;2.23;79.25;101082.88;346276;28;1323;-82
2022/01/26 00:07:18;;;;;;;115.05;40.70;;;;;;;2.29;78.56;101087.28;346278;28;1191;-82
2022/01/26 00:07:30;;;;;;;114.22;39.65;;;;;;;2.29;78.34;101087.28;346352;28;1066;-82
2022/01/26 00:07:42;;;;;;;106.72;37.55;;;;;;;2.23;78.36;101082.88;346608;28;1013;-83
2022/01/26 00:07:55;;;;;;;114.05;39.80;;;;;;;2.24;79.08;101083.75;346404;28;1113;-83
2022/01/26 00:08:07;;;;;;;118.35;40.67;;;;;;;2.24;78.93;101084.63;346307;28;1022;-83
2022/01/26 00:08:24;;;;;;;124.00;40.65;;;;;;;2.29;78.64;101080.44;346064;28;1062;-82
2022/01/26 00:08:37;;;;;;;121.35;39.83;;;;;;;2.27;78.71;101083.81;346238;28;1026;-83
2022/01/26 00:08:49;;;;;;;111.28;40.25;;;;;;;2.25;78.38;101086.34;346278;28;1154;-82
2022/01/26 00:09:03;;;;;;;118.82;39.75;;;;;;;2.27;78.49;101086.38;346576;28;1147;-83
2022/01/26 00:09:15;;;;;;;127.90;38.85;;;;;;;2.31;78.74;101086.47;346394;28;1061;-83
2022/01/26 00:09:27;;;;;;;140.98;39.30;;;;;;;2.31;78.49;101091.63;346464;28;1076;-83
2022/01/26 00:09:39;;;;;;;151.02;41.65;;;;;;;2.31;78.26;101081.34;346423;28;1196;-82
2022/01/26 00:09:51;;;;;;;145.90;42.10;;;;;;;2.33;78.27;101082.25;346192;28;1282;-82
2022/01/26 00:10:04;;;;;;;131.45;40.97;;;;;;;2.29;78.76;101083.00;346524;28;1184;-83
2022/01/26 00:10:16;;;;;;;123.70;39.55;;;;;;;2.21;78.38;101079.41;346051;28;1181;-82
2022/01/26 00:10:28;;;;;;;126.53;39.88;;;;;;;2.25;78.62;101086.34;345991;28;1067;-83
2022/01/26 00:10:40;;;;;;;122.85;39.60;;;;;;;2.22;78.81;101081.16;346424;28;1607;-83
2022/01/26 00:10:52;;;;;;;125.38;40.50;;;;;;;2.17;78.64;101087.84;346074;28;1011;-82
2022/01/26 00:11:04;;;;;;;127.30;41.72;;;;;;;2.15;79.00;101084.38;346018;28;1208;-83
2022/01/26 00:11:16;;;;;;;122.15;40.55;;;;;;;2.14;79.18;101077.53;346180;28;1179;-83
2022/01/26 00:11:31;;;;;;;113.70;38.20;;;;;;;2.13;79.07;101083.47;346346;28;1176;-83
2022/01/26 00:11:43;;;;;;;116.90;38.00;;;;;;;2.13;79.23;101076.66;347467;28;1898;-82
2022/01/26 00:11:55;;;;;;;130.82;40.28;;;;;;;2.15;79.34;101084.38;347400;28;1172;-83
2022/01/26 00:12:11;;;;;;;130.77;41.47;;;;;;;2.10;79.31;101079.16;346781;28;1224;-82
2022/01/26 00:12:25;;;;;;;123.95;40.72;;;;;;;2.14;79.05;101082.66;346250;28;1177;-83
2022/01/26 00:12:37;;;;;;;123.63;39.10;;;;;;;2.17;79.09;101082.72;345991;28;1133;-83
2022/01/26 00:12:49;;;;;;;123.40;38.85;;;;;;;2.22;79.00;101078.59;346382;28;1118;-82
2022/01/26 00:13:01;;;;;;;128.30;39.95;;;;;;;2.25;79.18;101076.06;346502;28;1243;-83
2022/01/26 00:13:13;;;;;;;130.88;41.60;;;;;;;2.26;79.13;101082.97;346261;28;1063;-83
2022/01/26 00:13:25;;;;;;;126.75;40.85;;;;;;;2.28;78.78;101081.28;346681;28;1582;-82
2022/01/26 00:13:37;;;;;;;122.05;39.63;;;;;;;2.24;78.54;101076.91;346456;28;1062;-82
2022/01/26 00:13:50;;;;;;;121.85;39.72;;;;;;;2.25;78.67;101081.22;346078;28;1099;-82
2022/01/26 00:14:09;;;;;;;116.75;41.05;;;;;;;2.23;78.82;101085.44;344920;28;1173;-82
2022/01/26 00:14:26;;;;;;;115.03;39.30;;;;;;;2.25;78.68;101086.34;344622;28;1032;-83
2022/01/26 00:14:42;;;;;;;118.32;38.97;;;;;;;2.25;79.02;101081.22;344287;28;1096;-82
2022/01/26 00:14:55;;;;;;;137.68;42.67;;;;;;;2.26;79.05;101076.97;344852;28;1115;-82
2022/01/26 00:15:07;;;;;;;149.05;43.55;;;;;;;2.21;79.34;101079.41;344772;28;1273;-83
2022/01/26 00:15:20;;;;;;;148.02;42.08;;;;;;;2.19;79.23;101078.50;344585;28;1026;-83
2022/01/26 00:15:32;;;;;;;133.45;40.55;;;;;;;2.26;79.27;101080.41;343690;28;1293;-83
2022/01/26 00:15:44;;;;;;;128.57;40.75;;;;;;;2.26;79.36;101082.09;343471;28;1127;-83
2022/01/26 00:15:58;;;;;;;132.65;42.25;;;;;;;2.20;79.15;101082.81;343540;28;1058;-83
2022/01/26 00:16:22;;;;;;;129.55;40.72;;;;;;;2.23;79.26;101082.88;343623;28;1071;-83
2022/01/26 00:16:38;;;;;;;124.45;40.30;;;;;;;2.20;79.34;101080.25;343553;28;1093;-83
2022/01/26 00:16:50;;;;;;;125.22;41.55;;;;;;;2.18;79.89;101079.34;343588;28;1168;-82
2022/01/26 00:17:03;;;;;;;128.88;40.60;;;;;;;2.20;79.65;101080.25;343719;28;1311;-82
2022/01/26 00:17:17;;;;;;;122.90;39.33;;;;;;;2.17;79.38;101073.34;344635;28;1039;-82
2022/01/26 00:17:29;;;;;;;123.63;40.38;;;;;;;2.16;79.24;101086.13;344587;28;1070;-82
2022/01/26 00:17:41;;;;;;;128.15;41.13;;;;;;;2.12;80.24;101084.31;344678;28;1178;-83
2022/01/26 00:17:56;;;;;;;131.23;40.75;;;;;;;2.08;79.46;101082.50;345270;28;740;-82
2022/01/26 00:18:07;;;;;;;137.40;40.95;;;;;;;2.05;79.46;101082.41;344716;28;1241;-83
2022/01/26 00:18:23;;;;;;;134.20;41.22;;;;;;;2.07;79.80;101079.06;344622;28;1051;-82
2022/01/26 00:18:37;;;;;;;135.02;42.03;;;;;;;2.13;79.68;101083.47;344821;28;1074;-82
2022/01/26 00:18:51;;;;;;;135.48;40.63;;;;;;;2.13;79.26;101080.91;344623;28;1190;-83
2022/01/26 00:19:06;;;;;;;124.68;38.75;;;;;;;2.16;79.77;101081.00;344884;28;1191;-83
2022/01/26 00:19:25;;;;;;;130.93;41.30;;;;;;;2.10;79.75;101085.97;343826;28;1059;-82
2022/01/26 00:20:27;;;;;;;144.93;40.70;;;;;;;2.20;77.87;101080.25;341816;28;1142;-82
2022/01/26 00:20:47;;;;;;;125.13;39.88;;;;;;;2.25;78.09;101081.22;342014;28;1169;-82
2022/01/26 00:21:08;;;;;;;121.60;38.15;;;;;;;2.24;77.16;101084.63;341952;28;1116;-83
2022/01/26 00:21:50;;;;;;;112.38;38.97;;;;;;;2.22;78.38;101086.28;343795;28;1219;-83
2022/01/26 00:22:02;;;;;;;121.28;40.53;;;;;;;2.28;78.67;101085.56;343690;28;902;-82
2022/01/26 00:22:33;;;;;;;131.80;42.13;;;;;;;2.30;77.75;101086.47;343715;28;1364;-83
2022/01/26 00:26:01;;;;;;;129.52;41.45;;;;;;;1.97;79.50;101075.41;339623;29;1085;-83
2022/01/26 00:26:25;;;;;;;115.00;37.63;;;;;;;1.99;80.18;101078.88;339456;29;1258;-83
2022/01/26 00:27:28;;;;;;;115.63;38.25;;;;;;;2.08;79.91;101077.38;344628;28;1343;-82
2022/01/26 00:27:53;;;;;;;112.03;40.90;;;;;;;2.10;79.72;101068.03;344737;28;1178;-83
2022/01/26 00:28:30;;;;;;;131.18;38.83;;;;;;;2.09;79.62;101079.97;344749;28;1176;-83
2022/01/26 00:29:08;;;;;;;120.13;39.40;;;;;;;2.20;79.18;101077.69;345861;28;1323;-82
2022/01/26 00:29:35;;;;;;;127.30;41.03;;;;;;;2.25;79.55;101077.78;345794;28;1031;-82
2022/01/26 00:29:59;;;;;;;130.02;37.55;;;;;;;2.15;80.22;101069.00;345970;28;1055;-82
2022/01/26 00:38:34;;;;;;;146.57;42.65;;;;;;;2.07;78.84;101080.75;344759;28;1038;-82
2022/01/26 00:38:40;;;;;;;105.80;36.13;;;;;;;2.32;78.67;101077.97;342152;28;1150;-82
2022/01/26 00:38:52;;;;;;;110.70;38.05;;;;;;;2.27;78.95;101079.53;342088;28;1120;-83
2022/01/26 00:39:04;;;;;;;113.25;37.28;;;;;;;2.25;78.97;101078.63;342100;28;1132;-82
2022/01/26 00:39:16;;;;;;;108.72;36.53;;;;;;;2.25;78.60;101075.22;342033;28;1020;-83
2022/01/26 00:39:28;;;;;;;108.72;36.83;;;;;;;2.28;78.91;101076.16;342307;28;1739;-82
2022/01/26 00:39:40;;;;;;;113.93;38.33;;;;;;;2.30;78.46;101077.06;342186;28;948;-82
2022/01/26 00:39:55;;;;;;;110.68;37.78;;;;;;;2.29;78.31;101072.75;341996;28;1101;-83
2022/01/26 00:40:19;;;;;;;101.53;35.20;;;;;;;2.33;79.04;101074.56;342681;28;1229;-83
2022/01/26 00:40:41;;;;;;;135.45;39.95;;;;;;;2.26;79.67;101075.25;344995;28;1203;-82
2022/01/26 00:41:02;;;;;;;128.45;38.72;;;;;;;2.31;79.13;101071.09;345049;28;1171;-83
2022/01/26 00:41:19;;;;;;;124.72;37.72;;;;;;;2.33;78.89;101078.84;344925;28;1181;-83
2022/01/26 00:41:35;;;;;;;121.82;38.95;;;;;;;2.22;79.25;101076.03;345012;28;1102;-82
2022/01/26 00:41:47;;;;;;;109.45;37.45;;;;;;;2.28;78.56;101065.91;344857;28;1030;-82
2022/01/26 00:41:59;;;;;;;114.13;38.67;;;;;;;2.30;78.88;101069.38;345107;28;1025;-82
2022/01/26 00:42:11;;;;;;;112.60;37.90;;;;;;;2.26;78.74;101067.56;344891;28;1180;-83
2022/01/26 00:42:24;;;;;;;110.68;35.38;;;;;;;2.25;78.42;101065.81;344881;28;1171;-82
2022/01/26 00:42:39;;;;;;;110.72;34.97;;;;;;;2.22;78.36;101070.88;344904;28;1270;-82
2022/01/26 00:42:54;;;;;;;130.35;39.03;;;;;;;2.24;78.50;101064.09;345084;28;959;-83
2022/01/26 00:43:19;;;;;;;150.65;40.72;;;;;;;2.22;79.02;101070.03;346089;28;1093;-82
2022/01/26 00:43:36;;;;;;;120.68;36.33;;;;;;;2.08;79.46;101069.69;346023;28;1117;-83
2022/01/26 00:43:56;;;;;;;120.88;37.95;;;;;;;2.07;79.82;101067.94;346325;28;978;-83
2022/01/26 00:44:09;;;;;;;125.60;39.00;;;;;;;2.10;79.63;101070.59;346085;28;1218;-83
2022/01/26 00:44:22;;;;;;;116.90;36.58;;;;;;;2.04;80.34;101070.44;346009;28;1202;-83
2022/01/26 00:44:41;;;;;;;122.65;35.72;;;;;;;1.99;79.69;101063.50;346107;28;839;-82
2022/01/26 00:44:53;;;;;;;128.15;38.55;;;;;;;2.07;80.05;101066.22;344981;28;1066;-82
2022/01/26 00:45:08;;;;;;;124.13;39.67;;;;;;;2.13;79.83;101065.53;344879;28;1071;-83
2022/01/26 00:45:24;;;;;;;117.53;37.10;;;;;;;2.10;79.47;101065.47;344843;28;1094;-82
2022/01/26 00:45:37;;;;;;;121.15;35.83;;;;;;;2.07;79.51;101067.94;344716;28;1094;-83
2022/01/26 00:45:54;;;;;;;131.05;38.85;;;;;;;2.11;79.65;101065.50;345010;28;1653;-83
2022/01/26 00:46:07;;;;;;;123.43;39.92;;;;;;;2.09;79.97;101069.69;344699;28;1059;-83
2022/01/26 00:46:21;;;;;;;108.93;36.92;;;;;;;2.02;79.72;101064.41;344734;28;1131;-82
2022/01/26 00:46:34;;;;;;;105.03;34.70;;;;;;;1.97;79.76;101067.72;344915;28;1115;-83
2022/01/26 00:46:49;;;;;;;119.88;36.65;;;;;;;2.09;79.31;101063.72;344731;28;1224;-83
2022/01/26 00:47:01;;;;;;;122.53;37.03;;;;;;;2.07;79.26;101067.94;344940;28;1352;-83
2022/01/26 00:47:14;;;;;;;116.80;35.83;;;;;;;2.06;79.48;101063.66;345339;28;1019;-83
2022/01/26 00:47:26;;;;;;;115.47;36.10;;;;;;;2.10;79.79;101058.63;345113;28;1224;-83
2022/01/26 00:47:38;;;;;;;111.63;37.70;;;;;;;2.13;79.13;101065.53;344943;28;1015;-83
2022/01/26 00:47:50;;;;;;;109.43;37.80;;;;;;;2.12;79.34;101063.81;345130;28;1070;-83
2022/01/26 00:48:07;;;;;;;103.20;35.15;;;;;;;2.18;79.35;101063.94;344864;28;1008;-82
2022/01/26 00:48:20;;;;;;;102.97;35.10;;;;;;;2.19;79.19;101065.66;344844;28;1279;-82
2022/01/26 00:48:34;;;;;;;106.07;37.08;;;;;;;2.25;79.21;101055.56;345077;28;877;-82
2022/01/26 00:48:52;;;;;;;107.38;37.83;;;;;;;2.27;78.95;101064.16;344792;28;1166;-83
2022/01/26 00:49:04;;;;;;;107.40;36.58;;;;;;;2.24;79.44;101055.53;344646;28;1057;-82
2022/01/26 00:49:20;;;;;;;107.13;35.70;;;;;;;2.19;79.43;101063.09;344725;28;1087;-83
2022/01/26 00:49:32;;;;;;;110.45;37.38;;;;;;;2.17;79.47;101063.09;345222;28;873;-82
2022/01/26 00:49:44;;;;;;;117.35;39.03;;;;;;;2.18;79.42;101063.94;344917;28;1075;-83
2022/01/26 00:50:01;;;;;;;116.25;38.60;;;;;;;2.10;79.78;101057.75;344772;28;1079;-83
2022/01/26 00:50:13;;;;;;;107.68;35.92;;;;;;;2.15;79.02;101058.72;344585;28;1018;-82
2022/01/26 00:50:25;;;;;;;105.85;35.17;;;;;;;2.16;79.43;101063.91;344818;28;1023;-83
2022/01/26 00:50:39;;;;;;;103.22;35.88;;;;;;;2.22;79.46;101065.75;343533;28;1035;-83
2022/01/26 00:50:53;;;;;;;107.95;38.22;;;;;;;2.18;79.37;101062.25;343907;28;793;-83
2022/01/26 00:51:06;;;;;;;113.30;38.45;;;;;;;2.17;79.14;101060.53;343290;28;1143;-83
2022/01/26 00:51:21;;;;;;;114.05;36.95;;;;;;;2.16;79.64;101066.47;343517;28;1115;-83
2022/01/26 00:51:33;;;;;;;111.50;36.42;;;;;;;2.13;79.46;101066.41;343405;28;1023;-82
2022/01/26 00:51:45;;;;;;;116.72;37.53;;;;;;;2.11;79.65;101054.34;343422;28;1032;-82
2022/01/26 00:51:57;;;;;;;116.78;37.47;;;;;;;2.07;80.19;101060.25;343423;28;1039;-83
2022/01/26 00:52:14;;;;;;;113.60;36.30;;;;;;;2.10;79.28;101065.47;343286;28;1145;-83
2022/01/26 00:52:37;;;;;;;108.10;36.38;;;;;;;2.14;79.45;101063.00;343463;28;1027;-83
2022/01/26 00:52:53;;;;;;;115.78;35.80;;;;;;;2.03;79.80;101061.84;343540;28;1247;-82
2022/01/26 00:53:06;;;;;;;117.60;36.35;;;;;;;1.95;80.16;101061.69;343484;28;1196;-83
2022/01/26 00:53:23;;;;;;;128.35;39.40;;;;;;;1.97;80.10;101065.16;343702;28;1145;-83
2022/01/26 00:53:44;;;;;;;134.57;40.13;;;;;;;2.01;80.35;101060.94;343802;28;1316;-83
2022/01/26 00:54:06;;;;;;;126.95;36.90;;;;;;;1.96;80.52;101062.56;343498;28;1137;-83
2022/01/26 00:54:18;;;;;;;127.20;38.80;;;;;;;2.02;80.36;101066.97;343173;28;1128;-82
2022/01/26 00:54:30;;;;;;;131.98;38.83;;;;;;;2.03;80.11;101063.56;343654;28;737;-82
2022/01/26 00:54:45;;;;;;;134.07;36.47;;;;;;;2.07;79.86;101062.81;343445;28;968;-82
2022/01/26 00:54:57;;;;;;;128.60;34.75;;;;;;;2.08;79.76;101062.00;343492;28;1031;-82
2022/01/26 00:55:18;;;;;;;114.03;35.00;;;;;;;2.06;79.72;101063.66;343460;28;1199;-83
2022/01/26 00:55:30;;;;;;;119.35;38.22;;;;;;;2.07;79.69;101061.09;343452;28;1071;-83
2022/01/26 00:55:42;;;;;;;122.03;37.97;;;;;;;2.01;79.84;101066.06;343400;28;1142;-83
2022/01/26 00:55:54;;;;;;;121.32;36.83;;;;;;;2.06;80.56;101066.22;343897;28;757;-83
2022/01/26 00:56:07;;;;;;;126.68;37.42;;;;;;;2.05;79.69;101067.03;343507;28;1212;-82
2022/01/26 00:56:19;;;;;;;129.95;38.90;;;;;;;2.06;79.91;101064.50;343205;28;1197;-83
2022/01/26 00:56:32;;;;;;;125.60;38.95;;;;;;;1.93;80.01;101060.78;342704;28;1117;-82
2022/01/26 00:56:44;;;;;;;116.22;36.42;;;;;;;1.91;80.79;101067.56;343821;28;1214;-83
2022/01/26 00:56:56;;;;;;;114.65;35.35;;;;;;;1.86;80.68;101064.00;343780;28;1197;-82
2022/01/26 00:57:08;;;;;;;115.57;35.45;;;;;;;1.85;80.32;101064.84;343600;28;1647;-83
2022/01/26 00:57:21;;;;;;;122.97;37.08;;;;;;;1.86;80.95;101064.00;343520;28;1222;-83
2022/01/26 00:57:34;;;;;;;129.07;39.08;;;;;;;1.89;80.53;101066.66;343516;28;1187;-82
2022/01/26 00:57:47;;;;;;;127.13;37.88;;;;;;;1.88;80.31;101070.03;343886;28;828;-83
2022/01/26 00:57:59;;;;;;;118.95;35.63;;;;;;;1.85;80.76;101064.84;343543;28;1059;-82
2022/01/26 00:58:11;;;;;;;118.30;37.15;;;;;;;1.89;80.73;101065.78;343346;28;1549;-83
2022/01/26 00:58:23;;;;;;;124.75;39.42;;;;;;;1.87;80.36;101064.88;343456;28;1200;-83
2022/01/26 00:58:35;;;;;;;128.27;38.30;;;;;;;1.87;80.84;101067.44;343292;28;1083;-82
2022/01/26 00:58:48;;;;;;;124.68;36.67;;;;;;;1.90;81.17;101062.41;343525;28;1149;-83
2022/01/26 00:59:00;;;;;;;130.18;37.63;;;;;;;1.90;80.99;101063.25;341988;28;1032;-83
2022/01/26 00:59:12;;;;;;;138.40;39.00;;;;;;;1.88;80.56;101064.91;343199;28;880;-83
2022/01/26 00:59:24;;;;;;;135.85;37.53;;;;;;;1.82;80.55;101064.75;343385;28;1035;-83
2022/01/26 00:59:39;;;;;;;128.10;36.30;;;;;;;1.83;80.69;101063.91;343443;28;1091;-82
2022/01/26 00:59:52;;;;;;;128.43;37.15;;;;;;;1.84;80.63;101065.66;343444;28;1149;-83
2022/01/26 01:00:14;;;;;;;133.93;36.78;;;;;;;1.76;81.04;101069.72;343351;28;1087;-82
2022/01/26 01:00:27;;;;;;;150.45;36.00;;;;;;;1.81;81.15;101068.13;343432;28;1043;-82
2022/01/26 01:00:39;;;;;;;139.57;36.35;;;;;;;1.83;80.52;101063.91;343337;28;1190;-82
2022/01/26 01:00:53;;;;;;;140.00;38.00;;;;;;;1.83;80.79;101063.06;343470;28;1055;-82
2022/01/26 01:01:06;;;;;;;138.48;38.92;;;;;;;1.82;80.83;101067.31;343571;28;1019;-82
2022/01/26 01:01:18;;;;;;;166.05;39.83;;;;;;;1.90;80.99;101065.81;343685;28;1102;-82
2022/01/26 01:01:32;;;;;;;185.85;39.20;;;;;;;1.89;80.73;101063.22;343979;28;741;-82
2022/01/26 01:01:45;;;;;;;174.27;39.00;;;;;;;1.93;80.54;101063.34;343624;28;1231;-83
2022/01/26 01:01:58;;;;;;;162.40;38.88;;;;;;;1.95;80.19;101061.69;343589;28;1165;-82
2022/01/26 01:02:10;;;;;;;156.68;39.42;;;;;;;1.92;80.81;101063.31;343952;28;760;-83
2022/01/26 01:02:23;;;;;;;150.57;39.15;;;;;;;1.92;80.70;101066.72;343653;28;1062;-83
2022/01/26 01:02:35;;;;;;;132.80;36.22;;;;;;;1.98;80.26;101061.75;343580;28;1059;-83
2022/01/26 01:02:48;;;;;;;147.40;35.83;;;;;;;1.96;80.49;101065.97;343459;28;1118;-83
2022/01/26 01:03:01;;;;;;;154.27;36.55;;;;;;;1.89;80.98;101064.09;343601;28;1158;-83
2022/01/26 01:03:14;;;;;;;138.23;37.13;;;;;;;1.79;81.08;101059.53;343497;28;1051;-82
2022/01/26 01:03:28;;;;;;;132.27;38.17;;;;;;;1.76;81.13;101060.34;343496;28;1200;-83
2022/01/26 01:03:44;;;;;;;133.32;36.60;;;;;;;1.70;80.82;101065.31;343605;28;1183;-83
2022/01/26 01:03:56;;;;;;;135.27;35.22;;;;;;;1.67;81.18;101070.38;343364;28;1067;-82
2022/01/26 01:04:08;;;;;;;143.43;35.97;;;;;;;1.68;81.92;101064.41;343436;28;1113;-82
2022/01/26 01:04:20;;;;;;;145.18;37.58;;;;;;;1.70;81.27;101067.00;343315;28;1201;-82
2022/01/26 01:04:32;;;;;;;138.80;39.15;;;;;;;1.71;81.22;101063.59;343061;28;1071;-82
2022/01/26 01:04:44;;;;;;;131.85;38.03;;;;;;;1.71;81.83;101068.72;343318;28;1027;-82
2022/01/26 01:04:59;;;;;;;128.08;36.04;;;;;;;1.73;81.72;101069.63;343377;28;1173;-82
2022/01/26 01:05:21;;;;;;;145.82;36.38;;;;;;;1.74;81.05;101067.13;344763;28;1023;-83
2022/01/26 01:05:49;;;;;;;146.93;39.78;;;;;;;1.80;81.08;101066.41;344755;28;1103;-83
2022/01/26 01:06:07;;;;;;;124.43;36.08;;;;;;;1.77;81.50;101066.31;343491;28;1169;-83
2022/01/26 01:06:26;;;;;;;125.55;36.67;;;;;;;1.77;81.04;101076.56;343435;28;1146;-82
2022/01/26 01:06:46;;;;;;;144.48;38.55;;;;;;;1.72;81.49;101073.03;342307;28;1056;-83
2022/01/26 01:07:01;;;;;;;156.82;39.70;;;;;;;1.73;81.67;101074.75;341901;28;1267;-82
2022/01/26 01:07:18;;;;;;;161.55;38.17;;;;;;;1.76;80.86;101075.72;342172;28;1030;-82
2022/01/26 01:07:35;;;;;;;161.52;36.97;;;;;;;1.75;80.79;101073.09;341992;28;1055;-82
2022/01/26 01:07:51;;;;;;;169.63;39.10;;;;;;;1.75;80.96;101080.78;342125;28;1123;-82
2022/01/26 01:08:12;;;;;;;154.52;39.85;;;;;;;1.72;80.83;101078.16;342792;28;1096;-83
2022/01/26 01:08:25;;;;;;;129.20;36.70;;;;;;;1.68;81.71;101078.91;343463;28;1261;-82
2022/01/26 01:08:40;;;;;;;122.88;34.70;;;;;;;1.62;81.63;101082.19;343461;28;1174;-82
2022/01/26 01:08:55;;;;;;;124.43;35.22;;;;;;;1.55;82.01;101078.59;343588;28;1177;-83
2022/01/26 01:09:07;;;;;;;136.77;36.80;;;;;;;1.50;82.42;101072.47;343958;28;1071;-83
2022/01/26 01:09:21;;;;;;;145.77;38.38;;;;;;;1.57;82.43;101079.50;343919;28;1202;-82
2022/01/26 01:09:34;;;;;;;146.57;38.80;;;;;;;1.58;81.90;101076.09;343740;28;1778;-82
2022/01/26 01:09:47;;;;;;;149.00;37.08;;;;;;;1.63;81.63;101083.94;343621;28;1153;-83
2022/01/26 01:09:59;;;;;;;146.43;35.40;;;;;;;1.66;81.61;101078.88;343666;28;1184;-83
2022/01/26 01:10:20;;;;;;;143.20;35.22;;;;;;;1.69;81.38;101085.75;343782;28;1142;-83
2022/01/26 01:10:32;;;;;;;138.45;38.47;;;;;;;1.61;81.63;101083.03;343693;28;1099;-83
2022/01/26 01:10:47;;;;;;;146.00;38.55;;;;;;;1.56;81.33;101077.75;343696;28;1074;-82
2022/01/26 01:10:59;;;;;;;135.00;34.90;;;;;;;1.57;81.70;101074.38;343606;28;1236;-82
2022/01/26 01:11:11;;;;;;;143.93;37.03;;;;;;;1.60;82.06;101079.56;343815;28;1072;-82
2022/01/26 01:11:25;;;;;;;149.27;39.00;;;;;;;1.58;81.59;101081.22;343642;28;1023;-82
2022/01/26 01:11:37;;;;;;;138.48;38.13;;;;;;;1.63;81.54;101077.91;343804;28;1205;-83
2022/01/26 01:11:55;;;;;;;130.82;36.17;;;;;;;1.66;81.79;101080.56;344620;28;1078;-83
2022/01/26 01:12:08;;;;;;;132.50;35.35;;;;;;;1.69;81.40;101073.84;345055;28;1076;-82
2022/01/26 01:12:19;;;;;;;139.43;36.33;;;;;;;1.71;81.67;101076.41;343729;28;1031;-82
2022/01/26 01:12:37;;;;;;;139.95;37.42;;;;;;;1.68;81.51;101081.47;344126;28;745;-83
2022/01/26 01:12:54;;;;;;;132.23;35.92;;;;;;;1.74;81.70;101079.06;343731;28;1048;-83
2022/01/26 01:13:14;;;;;;;121.80;33.97;;;;;;;1.76;81.22;101075.72;343491;28;1059;-83
2022/01/26 01:13:40;;;;;;;119.50;34.58;;;;;;;1.80;80.84;101079.25;343892;28;1171;-83
2022/01/26 01:13:52;;;;;;;126.00;36.90;;;;;;;1.78;80.81;101076.63;343874;28;936;-83
2022/01/26 01:14:04;;;;;;;130.55;36.13;;;;;;;1.83;80.77;101074.16;343925;28;1075;-83
2022/01/26 01:14:16;;;;;;;127.78;35.50;;;;;;;1.83;81.23;101075.88;342482;28;1067;-83
2022/01/26 01:14:31;;;;;;;123.55;36.05;;;;;;;1.89;81.46;101074.34;343968;28;812;-83
2022/01/26 01:14:44;;;;;;;119.85;35.72;;;;;;;1.83;80.53;101074.16;343544;28;1946;-83
2022/01/26 01:14:56;;;;;;;122.43;34.58;;;;;;;1.72;80.87;101081.59;343616;28;1184;-83
2022/01/26 01:15:09;;;;;;;121.82;34.08;;;;;;;1.73;81.16;101079.88;343531;28;1083;-82
2022/01/26 01:15:31;;;;;;;130.38;34.50;;;;;;;1.71;81.34;101078.97;343470;28;1039;-83
2022/01/26 01:15:43;;;;;;;127.60;36.33;;;;;;;1.73;81.20;101077.31;342267;28;1911;-83
2022/01/26 01:15:55;;;;;;;129.10;37.83;;;;;;;1.68;80.80;101076.34;342582;28;862;-83
2022/01/26 01:16:12;;;;;;;127.20;36.40;;;;;;;1.69;81.01;101080.63;342379;28;1148;-83
2022/01/26 01:16:25;;;;;;;122.82;33.95;;;;;;;1.65;81.44;101077.16;343659;28;1058;-83
2022/01/26 01:16:37;;;;;;;130.38;35.65;;;;;;;1.69;81.29;101072.94;343648;28;1571;-83
2022/01/26 01:16:52;;;;;;;130.38;36.65;;;;;;;1.77;80.91;101076.56;342542;28;1167;-82
2022/01/26 01:17:07;;;;;;;128.05;35.90;;;;;;;1.74;81.16;101076.50;342479;28;1336;-82
2022/01/26 01:17:25;;;;;;;129.63;35.10;;;;;;;1.79;80.83;101080.03;342019;28;1145;-83
2022/01/26 01:17:42;;;;;;;131.73;34.10;;;;;;;1.80;81.25;101076.66;341198;29;1187;-83
2022/01/26 01:18:45;;;;;;;120.45;34.13;;;;;;;1.74;81.30;101079.06;338189;29;1234;-82
2022/01/26 01:19:27;;;;;;;128.02;35.05;;;;;;;1.78;81.08;101079.19;339541;29;1095;-82
2022/01/26 01:19:45;;;;;;;139.52;34.58;;;;;;;1.77;81.30;101076.56;342130;28;1092;-82
2022/01/26 01:20:14;;;;;;;119.80;33.38;;;;;;;1.82;81.03;101081.84;343888;28;1080;-83
2022/01/26 01:22:44;;;;;;;137.65;35.67;;;;;;;1.76;81.46;101090.25;343576;28;1139;-82
2022/01/26 01:23:15;;;;;;;141.93;35.75;;;;;;;1.86;80.55;101087.09;344095;28;1134;-82
2022/01/26 01:27:28;;;;;;;166.18;35.05;;;;;;;1.76;81.45;101090.25;344594;28;1322;-82
2022/01/26 01:29:11;;;;;;;161.98;35.33;;;;;;;1.90;80.92;101088.91;345208;28;1015;-82
2022/01/26 01:29:28;;;;;;;148.30;36.05;;;;;;;1.94;80.75;101088.16;345098;28;1162;-82
2022/01/26 01:29:47;;;;;;;201.30;39.35;;;;;;;1.95;80.96;101095.03;345222;28;1201;-83
2022/01/26 01:30:07;;;;;;;231.88;37.90;;;;;;;1.96;80.70;101089.06;345150;28;1158;-83
2022/01/26 01:30:38;;;;;;;136.20;36.50;;;;;;;1.95;80.87;101087.34;345042;28;1003;-82
2022/01/26 01:30:56;;;;;;;136.80;33.90;;;;;;;1.93;80.99;101093.22;345109;28;1172;-82
2022/01/26 01:31:15;;;;;;;125.35;32.25;;;;;;;1.94;80.71;101095.84;345090;28;1120;-83
2022/01/26 01:31:42;;;;;;;123.40;33.17;;;;;;;1.97;80.66;101085.69;345051;28;1089;-83
2022/01/26 01:31:57;;;;;;;159.82;37.20;;;;;;;2.08;80.84;101090.22;344905;28;1070;-82
2022/01/26 01:32:15;;;;;;;169.45;36.08;;;;;;;2.07;80.34;101091.88;345106;28;1195;-82
2022/01/26 01:32:38;;;;;;;158.07;32.80;;;;;;;2.10;80.66;101088.53;345117;28;1167;-83
2022/01/26 01:33:18;;;;;;;201.15;39.08;;;;;;;2.04;80.17;101093.53;345383;28;1242;-83
2022/01/26 01:33:30;;;;;;;127.82;33.97;;;;;;;2.00;80.55;101093.44;345004;28;1276;-83
2022/01/26 01:33:47;;;;;;;121.18;33.30;;;;;;;2.05;80.87;101087.56;345159;28;1067;-82
2022/01/26 01:33:59;;;;;;;125.28;34.65;;;;;;;2.07;80.17;101091.03;345019;28;1071;-82
2022/01/26 01:34:14;;;;;;;140.90;35.67;;;;;;;2.03;80.54;101094.34;345022;28;1033;-83
2022/01/26 01:34:39;;;;;;;135.80;34.75;;;;;;;2.03;80.83;101089.22;344994;28;1207;-82
2022/01/26 01:34:51;;;;;;;150.20;37.38;;;;;;;2.08;80.26;101083.38;345308;28;1186;-82
2022/01/26 01:35:07;;;;;;;157.00;37.78;;;;;;;2.09;80.19;101089.34;345100;28;1125;-82
2022/01/26 01:35:20;;;;;;;165.05;35.38;;;;;;;2.10;80.53;101091.97;345098;28;1053;-82
2022/01/26 01:35:35;;;;;;;181.02;35.30;;;;;;;2.12;80.14;101084.31;345226;28;1199;-83
2022/01/26 01:35:49;;;;;;;175.60;37.65;;;;;;;2.16;80.04;101086.13;345166;28;1009;-83
2022/01/26 01:36:05;;;;;;;154.77;37.40;;;;;;;2.10;80.49;101091.97;345276;28;1113;-83
2022/01/26 01:36:17;;;;;;;146.38;34.20;;;;;;;2.15;80.66;101097.22;345147;28;1199;-82
2022/01/26 01:36:29;;;;;;;150.05;34.33;;;;;;;2.19;79.97;101093.88;345241;28;1209;-82
2022/01/26 01:36:44;;;;;;;163.98;36.40;;;;;;;2.16;80.69;101092.13;345432;28;1660;-83
2022/01/26 01:37:02;;;;;;;183.90;37.47;;;;;;;2.16;80.56;101093.81;344934;28;1976;-83
2022/01/26 01:37:16;;;;;;;187.98;36.13;;;;;;;2.10;80.82;101096.25;344886;28;1141;-83
2022/01/26 01:37:28;;;;;;;183.65;36.40;;;;;;;2.09;80.47;101089.34;344993;28;1038;-83
2022/01/26 01:37:40;;;;;;;182.10;36.70;;;;;;;2.11;80.50;101091.16;344980;28;1171;-83
2022/01/26 01:37:52;;;;;;;208.63;39.30;;;;;;;2.14;80.58;101090.34;344893;28;1055;-83
2022/01/26 01:38:10;;;;;;;193.70;37.85;;;;;;;2.15;80.33;101094.63;344985;28;1011;-82
2022/01/26 01:38:22;;;;;;;223.57;37.83;;;;;;;2.14;80.35;101088.66;345063;28;1244;-83